OMAD/AZI METAR and TAF weather

Enter ICAO airport designator
Station Type Date Time Source
OMAD METAR 2022/08/12 14:00 UTC NOAA

OMAD 121400Z 36009KT 8000 NSC 37/29 Q0991 NOSIG


Station Type Date Time Source
OMAD Decoded METAR 2022/08/12 14:00 UTC NOAA

Abu Dhabi Bateen Airport, United Arab Emirates (OMAD) 24-26N 054-28E 3M
Aug 12, 2022 - 10:00 AM EDT / 2022.08.12 1400 UTC
Wind: from the N (360 degrees) at 10 MPH (9 KT):0
Visibility: 4 mile(s):0
Temperature: 98 F (37 C)
Heat index: 126.0 F (52.2 C):1
Dew Point: 84 F (29 C)
Relative Humidity: 63%
Pressure (altimeter): 29.26 in. Hg (0991 hPa)
ob: OMAD 121400Z 36009KT 8000 NSC 37/29 Q0991 NOSIG
cycle: 14

Station Type Date Time Source
OMAD TAF 2022/08/12 12:03 UTC NOAA

TAF TAF OMAD 121100Z 1212/1318 34011KT 8000 NSC
BECMG 1217/1219 06005KT
BECMG 1302/1304 12012KT PROB30 1303/1306 4000 DU
BECMG 1310/1312 36009KT

Example: see airport list